Time;durP1;ratioP1;P1;durP2;ratioP2;P2;SDS_P1;SDS_P2;PMS_P1;PMS_P2;Temp;Humidity;BMP_temperature;BMP_pressure;BME280_temperature;BME280_humidity;BME280_pressure;Samples;Min_cycle;Max_cycle;Signal;HPM_P1;HPM_P2
2021/06/23 00:01:56;;;;;;;5.53;3.58;;;24.60;52.40;;;;;;5008386;28;20038;-69
2021/06/23 00:04:22;;;;;;;7.43;3.90;;;24.60;52.30;;;;;;5003435;28;20038;-69
2021/06/23 00:06:48;;;;;;;5.22;3.63;;;24.60;52.40;;;;;;5017323;28;20499;-69
2021/06/23 00:09:13;;;;;;;4.90;3.60;;;24.40;53.00;;;;;;5006458;28;20113;-69
2021/06/23 00:11:42;;;;;;;6.80;3.75;;;24.50;52.40;;;;;;5017624;28;20112;-69
2021/06/23 00:14:09;;;;;;;7.68;4.13;;;24.50;52.10;;;;;;5020602;28;20547;-69
2021/06/23 00:16:34;;;;;;;5.90;4.03;;;24.40;52.30;;;;;;5018035;28;20145;-70
2021/06/23 00:19:00;;;;;;;6.38;4.20;;;24.40;52.60;;;;;;5015847;28;20490;-69
2021/06/23 00:21:25;;;;;;;6.00;3.17;;;24.40;52.40;;;;;;5014349;28;20392;-69
2021/06/23 00:23:51;;;;;;;5.18;3.38;;;24.40;52.50;;;;;;5018813;28;20150;-67
2021/06/23 00:26:17;;;;;;;6.35;3.83;;;24.40;52.80;;;;;;5017447;28;20041;-68
2021/06/23 00:28:42;;;;;;;5.38;3.47;;;24.40;52.80;;;;;;5019958;28;20033;-69
2021/06/23 00:31:08;;;;;;;7.07;3.97;;;24.30;53.10;;;;;;5020738;28;20498;-69
2021/06/23 00:33:37;;;;;;;7.15;3.88;;;24.30;53.20;;;;;;5018207;28;20124;-69
2021/06/23 00:36:02;;;;;;;7.68;3.47;;;24.30;53.00;;;;;;5001863;28;20105;-69
2021/06/23 00:38:28;;;;;;;5.15;3.72;;;24.20;53.20;;;;;;5017418;28;20498;-69
2021/06/23 00:40:54;;;;;;;6.82;3.65;;;24.20;53.70;;;;;;5010972;28;20038;-69
2021/06/23 00:43:20;;;;;;;7.03;3.60;;;24.20;53.50;;;;;;5018075;28;20046;-69
2021/06/23 00:45:47;;;;;;;6.65;3.90;;;24.20;53.20;;;;;;5018453;28;20033;-70
2021/06/23 00:48:23;;;;;;;5.72;3.60;;;24.10;53.40;;;;;;5021003;28;20105;-69
2021/06/23 00:50:49;;;;;;;5.82;3.65;;;24.10;54.00;;;;;;4997258;28;20116;-69
2021/06/23 00:53:14;;;;;;;6.72;3.47;;;24.10;53.40;;;;;;5015955;28;20518;-69
2021/06/23 00:55:41;;;;;;;4.90;3.08;;;24.10;53.60;;;;;;5022053;28;20073;-69
2021/06/23 00:58:07;;;;;;;6.95;3.88;;;24.10;53.60;;;;;;5019479;28;20103;-69
2021/06/23 01:00:34;;;;;;;6.45;3.88;;;24.00;53.30;;;;;;5019289;28;20048;-69
2021/06/23 01:03:02;;;;;;;8.68;4.20;;;24.10;53.60;;;;;;5017279;28;20417;-69
2021/06/23 01:05:29;;;;;;;4.88;3.42;;;24.00;54.20;;;;;;5018000;28;20041;-68
2021/06/23 01:07:55;;;;;;;4.03;3.15;;;24.00;53.90;;;;;;5011626;28;20455;-69
2021/06/23 01:10:21;;;;;;;6.63;4.00;;;23.90;54.10;;;;;;5018316;28;20041;-69
2021/06/23 01:13:09;;;;;;;5.90;3.65;;;23.90;54.50;;;;;;5011464;28;20065;-61
2021/06/23 01:15:38;;;;;;;10.35;3.53;;;24.00;55.00;;;;;;5020443;28;20049;-69
2021/06/23 01:18:05;;;;;;;5.35;3.65;;;23.90;54.40;;;;;;5014669;28;20096;-69
2021/06/23 01:20:31;;;;;;;5.20;3.78;;;23.90;54.30;;;;;;5020638;28;20091;-69
2021/06/23 01:22:56;;;;;;;5.55;3.70;;;24.00;54.60;;;;;;5018879;28;20080;-69
2021/06/23 01:25:22;;;;;;;5.57;3.53;;;23.80;54.50;;;;;;5021551;28;20053;-68
2021/06/23 01:27:48;;;;;;;5.15;3.35;;;23.80;54.70;;;;;;5004403;28;20069;-68
2021/06/23 01:30:15;;;;;;;6.78;3.45;;;23.80;54.70;;;;;;5012961;28;21625;-69
2021/06/23 01:32:41;;;;;;;5.88;4.03;;;23.80;55.10;;;;;;5019862;28;20509;-70
2021/06/23 01:35:07;;;;;;;8.05;4.15;;;23.70;55.00;;;;;;5028959;28;20041;-69
2021/06/23 01:37:33;;;;;;;8.10;3.50;;;23.70;55.10;;;;;;5014732;28;20042;-69
2021/06/23 01:40:00;;;;;;;9.63;3.90;;;23.70;55.00;;;;;;5014546;28;20055;-70
2021/06/23 01:42:26;;;;;;;8.32;3.50;;;23.60;55.10;;;;;;5023727;28;20037;-69
2021/06/23 01:44:52;;;;;;;5.75;3.90;;;23.60;55.30;;;;;;5018766;28;20036;-69
2021/06/23 01:47:17;;;;;;;5.55;4.07;;;23.60;54.70;;;;;;5019049;28;20037;-68
2021/06/23 01:49:46;;;;;;;7.57;3.72;;;23.70;54.90;;;;;;5023587;28;20040;-69
2021/06/23 01:52:11;;;;;;;6.60;3.33;;;23.70;54.90;;;;;;5021436;28;20542;-69
2021/06/23 01:54:41;;;;;;;7.30;4.25;;;23.70;54.90;;;;;;5018105;28;20140;-69
2021/06/23 01:57:11;;;;;;;6.80;3.65;;;23.60;55.30;;;;;;5023767;28;20095;-69
2021/06/23 01:59:38;;;;;;;3.90;3.45;;;23.60;55.50;;;;;;5021685;28;20169;-69
2021/06/23 02:02:27;;;;;;;10.38;3.97;;;23.50;55.20;;;;;;5022430;28;20555;-70
2021/06/23 02:05:02;;;;;;;3.67;2.75;;;23.50;55.50;;;;;;5002935;28;20065;-69
2021/06/23 02:08:05;;;;;;;14.40;4.15;;;23.50;55.40;;;;;;5012499;28;20037;-69
2021/06/23 02:11:09;;;;;;;6.13;3.33;;;23.60;55.60;;;;;;4985061;28;20041;-69
2021/06/23 02:13:56;;;;;;;4.20;2.90;;;23.60;55.10;;;;;;4999770;28;20479;-69
2021/06/23 02:16:24;;;;;;;7.75;3.60;;;23.60;55.40;;;;;;4996101;28;20033;-69
2021/06/23 02:18:50;;;;;;;4.55;3.45;;;23.60;54.60;;;;;;5022455;28;20441;-69
2021/06/23 02:21:16;;;;;;;7.78;3.63;;;23.60;54.40;;;;;;5021953;28;20034;-69
2021/06/23 02:23:43;;;;;;;5.97;3.22;;;23.60;54.60;;;;;;5026292;28;20055;-70
2021/06/23 02:26:09;;;;;;;5.07;3.08;;;23.60;54.80;;;;;;5033472;28;20041;-69
2021/06/23 02:28:36;;;;;;;5.53;3.25;;;23.60;55.20;;;;;;5014077;28;20617;-70
2021/06/23 02:31:02;;;;;;;8.20;3.58;;;23.60;55.10;;;;;;5023023;28;20052;-69
2021/06/23 02:33:28;;;;;;;7.47;3.30;;;23.60;55.00;;;;;;5010288;28;20163;-70
2021/06/23 02:35:55;;;;;;;5.38;3.13;;;23.60;54.90;;;;;;5018429;28;20495;-69
2021/06/23 02:38:23;;;;;;;7.97;3.53;;;23.60;55.20;;;;;;5020935;28;20352;-69
2021/06/23 02:40:50;;;;;;;5.22;3.15;;;23.60;55.20;;;;;;4998486;28;20042;-69
2021/06/23 02:43:16;;;;;;;3.30;2.80;;;23.60;55.00;;;;;;5010016;28;20030;-69
2021/06/23 02:45:42;;;;;;;5.68;3.10;;;23.60;55.10;;;;;;5015229;28;20038;-69
2021/06/23 02:48:08;;;;;;;5.82;2.88;;;23.60;55.70;;;;;;5015194;28;20047;-69
2021/06/23 02:50:41;;;;;;;7.32;3.10;;;23.60;55.50;;;;;;5019735;28;20596;-69
2021/06/23 02:53:08;;;;;;;5.53;3.53;;;23.60;55.60;;;;;;5026578;28;20486;-70
2021/06/23 02:55:34;;;;;;;6.72;3.70;;;23.50;55.00;;;;;;5013212;28;20136;-70
2021/06/23 02:58:00;;;;;;;3.88;3.08;;;23.60;55.20;;;;;;5025960;28;20419;-69
2021/06/23 03:00:26;;;;;;;5.43;3.83;;;23.60;55.30;;;;;;5040711;28;20048;-69
2021/06/23 03:02:51;;;;;;;4.90;2.78;;;23.60;55.20;;;;;;5015315;28;20026;-69
2021/06/23 03:05:17;;;;;;;10.45;3.78;;;23.60;55.10;;;;;;5020267;28;20487;-66
2021/06/23 03:07:43;;;;;;;7.55;3.60;;;23.50;55.30;;;;;;5028886;28;20033;-69
2021/06/23 03:10:11;;;;;;;5.80;3.30;;;23.50;55.50;;;;;;5017770;28;20117;-69
2021/06/23 03:12:37;;;;;;;7.15;3.47;;;23.50;55.50;;;;;;4998653;28;20046;-69
2021/06/23 03:15:06;;;;;;;8.52;3.63;;;23.60;55.60;;;;;;5013445;28;20034;-69
2021/06/23 03:17:32;;;;;;;4.40;3.13;;;23.60;55.70;;;;;;5004352;28;20486;-69
2021/06/23 03:19:57;;;;;;;6.82;3.30;;;23.50;55.80;;;;;;5009543;28;20053;-69
2021/06/23 03:22:23;;;;;;;4.97;3.28;;;23.50;55.80;;;;;;5014121;28;20067;-69
2021/06/23 03:24:50;;;;;;;7.85;3.67;;;23.50;56.20;;;;;;5016480;28;20065;-68
2021/06/23 03:27:16;;;;;;;5.75;3.58;;;23.40;56.20;;;;;;5020223;28;21866;-69
2021/06/23 03:29:41;;;;;;;6.95;3.20;;;23.50;56.30;;;;;;5019067;28;20041;-69
2021/06/23 03:32:09;;;;;;;8.30;4.22;;;23.50;56.40;;;;;;5020792;28;20133;-69
2021/06/23 03:34:36;;;;;;;8.95;3.30;;;23.50;56.10;;;;;;5015978;28;20069;-68
2021/06/23 03:37:02;;;;;;;4.18;3.30;;;23.50;56.10;;;;;;5018823;28;20517;-70
2021/06/23 03:39:28;;;;;;;8.88;3.55;;;23.50;56.40;;;;;;5014349;28;20080;-69
2021/06/23 03:41:53;;;;;;;7.28;3.95;;;23.50;56.50;;;;;;5007232;28;20069;-69
2021/06/23 03:44:19;;;;;;;7.97;3.50;;;23.40;56.50;;;;;;5018471;28;20128;-69
2021/06/23 03:46:45;;;;;;;7.85;3.42;;;23.40;56.60;;;;;;5024445;28;20037;-69
2021/06/23 03:49:10;;;;;;;7.32;3.80;;;23.30;56.90;;;;;;5020493;28;20045;-69
2021/06/23 03:51:36;;;;;;;3.92;3.30;;;23.40;56.60;;;;;;5010667;28;20408;-70
2021/06/23 03:54:02;;;;;;;11.23;4.10;;;23.30;56.70;;;;;;5009973;28;20483;-70
2021/06/23 03:56:28;;;;;;;7.47;3.53;;;23.30;57.50;;;;;;5022601;28;20414;-70
2021/06/23 03:58:54;;;;;;;4.78;3.05;;;23.40;57.20;;;;;;5017098;28;20061;-70
2021/06/23 04:01:20;;;;;;;7.45;3.30;;;23.30;57.20;;;;;;5012936;28;20432;-69
2021/06/23 04:03:46;;;;;;;4.28;3.10;;;23.30;57.00;;;;;;5017747;28;20040;-70
2021/06/23 04:06:11;;;;;;;8.32;3.80;;;23.30;57.20;;;;;;5018489;28;20042;-70
2021/06/23 04:08:37;;;;;;;8.23;3.60;;;23.40;57.40;;;;;;5019618;28;20072;-70
2021/06/23 04:11:03;;;;;;;7.03;3.50;;;23.40;57.70;;;;;;5020060;28;20088;-70
2021/06/23 04:13:28;;;;;;;10.70;4.03;;;23.40;57.50;;;;;;5019641;28;20148;-70
2021/06/23 04:15:54;;;;;;;5.50;3.33;;;23.30;57.50;;;;;;5021899;28;20487;-70
2021/06/23 04:18:19;;;;;;;5.57;3.53;;;23.40;57.40;;;;;;5018951;28;20046;-70
2021/06/23 04:20:45;;;;;;;5.13;3.22;;;23.40;57.30;;;;;;5011514;28;20454;-70
2021/06/23 04:23:10;;;;;;;7.05;4.10;;;23.40;57.50;;;;;;5014180;28;20117;-69
2021/06/23 04:25:36;;;;;;;4.63;3.72;;;23.40;57.20;;;;;;5007787;28;20380;-70
2021/06/23 04:28:02;;;;;;;4.55;3.90;;;23.40;57.40;;;;;;5022480;28;20041;-69
2021/06/23 04:30:27;;;;;;;6.05;3.85;;;23.40;57.60;;;;;;5016851;28;20055;-69
2021/06/23 04:32:53;;;;;;;6.55;3.90;;;23.50;57.30;;;;;;5014133;28;20034;-68
2021/06/23 04:35:18;;;;;;;7.75;3.95;;;23.50;57.50;;;;;;5013694;28;20087;-68
2021/06/23 04:37:45;;;;;;;8.93;3.90;;;23.50;57.40;;;;;;5023054;28;20061;-68
2021/06/23 04:40:13;;;;;;;7.50;3.60;;;23.50;57.40;;;;;;5007937;28;20065;-69
2021/06/23 04:42:40;;;;;;;6.97;3.75;;;23.50;57.60;;;;;;5019012;28;20038;-69
2021/06/23 04:45:08;;;;;;;6.22;4.40;;;23.50;57.70;;;;;;5017704;28;20033;-69
2021/06/23 04:47:34;;;;;;;12.15;4.45;;;23.50;57.60;;;;;;5016442;28;20036;-70
2021/06/23 04:50:00;;;;;;;6.35;3.83;;;23.50;57.30;;;;;;5003524;28;20060;-69
2021/06/23 04:52:26;;;;;;;8.57;4.20;;;23.60;57.50;;;;;;5014695;28;20495;-69
2021/06/23 04:54:52;;;;;;;8.60;3.67;;;23.50;57.70;;;;;;5035347;28;20046;-69
2021/06/23 04:57:18;;;;;;;5.95;3.92;;;23.50;57.90;;;;;;5017504;28;20120;-64
2021/06/23 04:59:44;;;;;;;8.18;4.07;;;23.50;58.00;;;;;;5020286;28;20037;-69
2021/06/23 05:02:09;;;;;;;4.80;3.50;;;23.60;58.10;;;;;;5017995;28;20029;-69
2021/06/23 05:04:36;;;;;;;7.75;4.15;;;23.70;58.10;;;;;;5022362;28;20211;-69
2021/06/23 05:07:04;;;;;;;8.27;3.97;;;23.70;57.80;;;;;;5007965;28;20046;-69
2021/06/23 05:09:30;;;;;;;6.95;3.63;;;23.70;57.90;;;;;;5006662;28;20049;-69
2021/06/23 05:11:56;;;;;;;7.22;3.83;;;23.70;58.20;;;;;;5006056;28;20034;-69
2021/06/23 05:14:21;;;;;;;6.78;3.63;;;23.70;58.00;;;;;;5014455;28;20125;-69
2021/06/23 05:16:50;;;;;;;7.35;3.72;;;23.70;57.70;;;;;;5019473;28;20045;-69
2021/06/23 05:19:16;;;;;;;7.13;4.03;;;23.80;57.60;;;;;;5026596;28;20046;-70
2021/06/23 05:21:42;;;;;;;8.43;4.25;;;23.90;57.30;;;;;;5018088;28;20095;-70
2021/06/23 05:24:08;;;;;;;8.75;4.35;;;23.90;57.80;;;;;;5013613;28;20483;-69
2021/06/23 05:26:34;;;;;;;5.47;3.53;;;23.90;58.00;;;;;;5016291;28;20048;-70
2021/06/23 05:28:59;;;;;;;6.18;3.47;;;23.90;57.70;;;;;;5024885;28;20054;-69
2021/06/23 05:31:25;;;;;;;8.18;3.35;;;23.90;58.10;;;;;;5018909;28;20042;-70
2021/06/23 05:33:51;;;;;;;5.53;3.22;;;23.90;57.90;;;;;;5021402;28;20045;-70
2021/06/23 05:36:17;;;;;;;5.72;3.95;;;24.00;58.50;;;;;;5019804;28;20540;-70
2021/06/23 05:38:43;;;;;;;5.75;3.85;;;24.10;57.70;;;;;;5008158;28;20108;-69
2021/06/23 05:41:09;;;;;;;5.97;4.10;;;24.00;57.70;;;;;;5024794;28;20438;-69
2021/06/23 05:43:34;;;;;;;6.72;3.63;;;24.10;57.60;;;;;;5022939;28;20391;-70
2021/06/23 05:46:00;;;;;;;9.38;3.72;;;24.10;57.60;;;;;;5024039;28;20033;-69
2021/06/23 05:48:25;;;;;;;6.75;3.50;;;24.10;57.80;;;;;;5019650;28;20048;-69
2021/06/23 05:50:51;;;;;;;5.70;3.78;;;24.10;58.00;;;;;;5020466;28;20483;-69
2021/06/23 05:53:17;;;;;;;7.03;3.80;;;24.10;57.90;;;;;;5014987;28;20460;-70
2021/06/23 05:55:43;;;;;;;7.25;4.00;;;24.20;57.90;;;;;;5023961;28;20033;-70
2021/06/23 05:58:09;;;;;;;6.10;3.58;;;24.20;57.70;;;;;;5021386;28;20830;-69
2021/06/23 06:00:36;;;;;;;7.10;3.60;;;24.30;57.60;;;;;;5019213;28;20041;-69
2021/06/23 06:03:03;;;;;;;6.82;3.63;;;24.30;57.20;;;;;;5020639;28;20045;-69
2021/06/23 06:05:29;;;;;;;8.77;4.30;;;24.40;57.20;;;;;;5011925;28;20041;-70
2021/06/23 06:07:55;;;;;;;8.68;3.28;;;24.30;57.00;;;;;;5018867;28;20446;-69
2021/06/23 06:10:20;;;;;;;8.82;4.07;;;24.40;57.00;;;;;;5021828;28;20172;-69
2021/06/23 06:12:46;;;;;;;9.45;3.72;;;24.40;57.10;;;;;;5009364;28;20467;-69
2021/06/23 06:15:12;;;;;;;5.60;3.47;;;24.40;56.60;;;;;;5021389;28;20038;-69
2021/06/23 06:17:38;;;;;;;6.20;3.90;;;24.30;57.10;;;;;;5039586;28;20045;-70
2021/06/23 06:20:06;;;;;;;9.55;4.18;;;24.40;56.90;;;;;;5017420;28;20037;-70
2021/06/23 06:22:32;;;;;;;9.07;3.63;;;24.50;56.90;;;;;;5022956;28;20056;-69
2021/06/23 06:24:58;;;;;;;10.45;4.13;;;24.60;56.60;;;;;;5006620;28;20133;-68
2021/06/23 06:27:24;;;;;;;9.60;3.53;;;24.60;56.20;;;;;;5022450;28;20434;-68
2021/06/23 06:29:50;;;;;;;9.52;3.88;;;24.60;55.90;;;;;;5021961;28;20037;-68
2021/06/23 06:32:15;;;;;;;5.63;3.08;;;24.60;55.80;;;;;;5019974;28;20484;-69
2021/06/23 06:34:41;;;;;;;7.10;3.00;;;24.60;55.50;;;;;;5020830;28;20117;-70
2021/06/23 06:37:07;;;;;;;7.80;3.85;;;24.60;55.50;;;;;;5019289;28;20060;-70
2021/06/23 06:39:32;;;;;;;9.25;3.28;;;24.70;55.30;;;;;;5020229;28;20068;-68
2021/06/23 06:41:58;;;;;;;7.40;3.78;;;24.70;54.70;;;;;;5023518;28;20058;-68
2021/06/23 06:44:28;;;;;;;6.72;3.00;;;24.80;55.00;;;;;;5014099;28;20111;-68
2021/06/23 06:46:54;;;;;;;7.63;2.92;;;24.70;54.90;;;;;;5019465;28;20038;-68
2021/06/23 06:49:19;;;;;;;5.53;3.28;;;24.70;55.10;;;;;;5017849;28;20392;-67
2021/06/23 06:51:45;;;;;;;7.78;3.63;;;24.80;55.00;;;;;;5010827;28;20040;-68
2021/06/23 06:54:10;;;;;;;8.10;2.67;;;24.90;54.80;;;;;;5025161;28;20120;-68
2021/06/23 06:56:36;;;;;;;9.55;3.60;;;24.90;54.50;;;;;;5016603;28;20229;-69
2021/06/23 06:59:02;;;;;;;8.55;3.38;;;24.90;54.50;;;;;;5017380;28;20553;-67
2021/06/23 07:01:27;;;;;;;8.23;3.78;;;24.90;54.20;;;;;;5014268;28;20042;-67
2021/06/23 07:03:53;;;;;;;10.40;3.65;;;25.00;53.90;;;;;;5014631;28;20442;-68
2021/06/23 07:06:18;;;;;;;4.85;3.35;;;25.10;53.20;;;;;;5018587;28;20032;-67
2021/06/23 07:08:44;;;;;;;11.85;3.88;;;25.20;52.80;;;;;;5024457;28;20117;-68
2021/06/23 07:11:10;;;;;;;5.65;4.05;;;25.20;52.90;;;;;;5012581;28;20025;-68
2021/06/23 07:13:36;;;;;;;10.82;4.00;;;25.10;52.50;;;;;;5004436;28;20491;-68
2021/06/23 07:16:01;;;;;;;6.10;3.70;;;25.20;52.10;;;;;;5017016;28;20041;-68
2021/06/23 07:18:27;;;;;;;8.70;3.78;;;25.10;52.20;;;;;;5008554;28;20043;-68
2021/06/23 07:20:52;;;;;;;8.13;3.15;;;25.20;52.20;;;;;;5011543;28;20049;-68
2021/06/23 07:23:18;;;;;;;8.90;3.45;;;25.20;52.00;;;;;;5020963;28;20048;-65
2021/06/23 07:25:44;;;;;;;10.52;3.92;;;25.40;51.50;;;;;;5011067;28;20133;-68
2021/06/23 07:28:12;;;;;;;8.20;3.60;;;25.40;51.70;;;;;;5008569;28;20038;-68
2021/06/23 07:30:43;;;;;;;8.35;3.42;;;25.50;51.70;;;;;;5010739;28;20513;-67
2021/06/23 07:33:09;;;;;;;7.15;3.13;;;25.40;51.40;;;;;;5003373;28;20434;-68
2021/06/23 07:38:19;;;;;;;6.93;2.92;;;25.40;51.10;;;;;;5007707;28;21473;-67
2021/06/23 07:43:20;;;;;;;5.35;3.20;;;25.40;50.90;;;;;;5018913;28;20045;-69
2021/06/23 07:45:52;;;;;;;6.03;3.40;;;25.50;50.70;;;;;;5019264;28;20029;-67
2021/06/23 07:48:27;;;;;;;6.20;3.55;;;25.70;50.50;;;;;;5016035;28;20454;-60
2021/06/23 07:51:09;;;;;;;5.78;3.40;;;25.80;50.50;;;;;;5021676;28;20088;-69
2021/06/23 07:54:20;;;;;;;5.05;3.03;;;25.80;49.80;;;;;;5018061;28;20426;-68
2021/06/23 08:02:34;;;;;;;4.40;3.67;;;25.80;49.70;;;;;;5020879;28;20045;-68
2021/06/23 08:10:11;;;;;;;7.47;3.97;;;26.00;49.90;;;;;;5018508;28;20514;-68
2021/06/23 08:15:06;;;;;;;6.50;4.25;;;26.20;49.70;;;;;;5019872;28;20071;-68
2021/06/23 08:17:31;;;;;;;6.82;3.72;;;26.30;49.30;;;;;;5015449;28;20392;-68
2021/06/23 08:19:57;;;;;;;8.73;4.25;;;26.30;49.10;;;;;;5019061;28;20056;-68
2021/06/23 08:22:23;;;;;;;4.13;2.78;;;26.40;49.00;;;;;;5020546;28;20033;-67
2021/06/23 08:24:48;;;;;;;7.03;4.18;;;26.40;49.30;;;;;;5007868;28;20140;-64
2021/06/23 08:27:14;;;;;;;7.90;4.88;;;26.50;49.30;;;;;;5023493;28;20106;-68
2021/06/23 08:29:39;;;;;;;9.23;4.20;;;26.50;49.50;;;;;;5014132;28;20042;-67
2021/06/23 08:32:06;;;;;;;7.70;3.85;;;26.50;49.40;;;;;;5007342;28;20541;-68
2021/06/23 08:34:31;;;;;;;7.97;4.28;;;26.70;49.30;;;;;;5002581;28;20037;-67
2021/06/23 08:36:57;;;;;;;9.80;4.25;;;26.70;48.80;;;;;;5016382;28;20171;-67
2021/06/23 08:39:23;;;;;;;6.05;3.60;;;26.70;48.70;;;;;;5011600;28;20049;-66
2021/06/23 08:41:49;;;;;;;7.10;4.85;;;26.80;48.50;;;;;;5018296;28;20037;-66
2021/06/23 08:44:14;;;;;;;7.60;4.75;;;27.00;48.30;;;;;;5011544;28;20061;-67
2021/06/23 08:46:41;;;;;;;7.22;4.30;;;26.80;48.30;;;;;;5022811;28;20037;-67
2021/06/23 08:49:07;;;;;;;5.47;3.92;;;26.90;48.10;;;;;;5020464;28;20044;-67
2021/06/23 08:51:35;;;;;;;8.65;4.32;;;27.00;48.20;;;;;;5014720;28;20108;-67
2021/06/23 08:54:01;;;;;;;11.48;5.03;;;27.10;47.90;;;;;;5018317;28;20056;-66
2021/06/23 08:56:27;;;;;;;7.53;3.72;;;27.10;47.90;;;;;;5014253;28;20091;-67
2021/06/23 08:58:53;;;;;;;9.48;4.68;;;27.20;47.80;;;;;;5020046;28;20483;-67
2021/06/23 09:01:18;;;;;;;8.23;4.13;;;27.10;47.80;;;;;;5018461;28;20033;-66
2021/06/23 09:04:04;;;;;;;9.68;4.07;;;27.20;47.80;;;;;;5024349;28;20386;-68
2021/06/23 09:06:49;;;;;;;12.73;3.72;;;27.30;47.50;;;;;;4980231;28;20033;-68
2021/06/23 09:09:16;;;;;;;9.55;4.53;;;27.40;47.00;;;;;;5022779;28;20030;-68
2021/06/23 09:11:42;;;;;;;7.18;3.78;;;27.30;46.60;;;;;;5016259;28;20121;-68
2021/06/23 09:14:15;;;;;;;8.05;4.45;;;27.30;47.30;;;;;;5019762;28;20084;-68
2021/06/23 09:17:07;;;;;;;9.03;4.53;;;27.20;46.60;;;;;;5016751;28;20124;-68
2021/06/23 09:19:42;;;;;;;7.00;3.72;;;27.30;47.40;;;;;;4998062;28;20415;-68
2021/06/23 09:22:32;;;;;;;9.48;3.95;;;27.50;47.00;;;;;;5012227;28;20128;-68
2021/06/23 09:24:59;;;;;;;7.45;4.13;;;27.50;46.60;;;;;;4992807;28;20052;-67
2021/06/23 09:27:27;;;;;;;13.50;3.80;;;27.40;46.80;;;;;;5016856;28;20061;-67
2021/06/23 09:30:13;;;;;;;8.18;4.35;;;27.40;47.00;;;;;;5015520;28;20500;-67
2021/06/23 09:32:39;;;;;;;10.93;4.65;;;27.60;46.80;;;;;;5017274;28;20064;-68
2021/06/23 09:35:05;;;;;;;5.43;4.28;;;27.70;46.80;;;;;;5021579;28;20454;-67
2021/06/23 09:37:33;;;;;;;5.80;3.78;;;27.80;46.60;;;;;;5006151;28;20071;-67
2021/06/23 09:40:16;;;;;;;4.18;3.60;;;27.70;46.20;;;;;;5015168;28;20041;-68
2021/06/23 09:43:00;;;;;;;11.23;4.13;;;27.80;46.10;;;;;;5016759;28;20565;-67
2021/06/23 09:45:27;;;;;;;9.75;3.75;;;27.90;46.30;;;;;;4987785;28;20118;-68
2021/06/23 09:48:00;;;;;;;6.40;4.25;;;27.90;46.30;;;;;;5000895;28;20033;-67
2021/06/23 09:50:29;;;;;;;11.93;3.83;;;28.10;46.40;;;;;;5011378;28;20037;-67
2021/06/23 09:52:58;;;;;;;6.18;3.55;;;28.30;46.20;;;;;;5016677;28;20038;-67
2021/06/23 09:55:38;;;;;;;6.55;4.35;;;28.20;45.70;;;;;;5023776;28;20041;-67
2021/06/23 09:58:11;;;;;;;7.83;3.97;;;28.10;45.50;;;;;;5020223;28;20105;-67
2021/06/23 10:01:05;;;;;;;5.57;3.53;;;28.20;45.30;;;;;;5014592;28;20041;-67
2021/06/23 10:03:51;;;;;;;6.75;3.75;;;28.40;45.00;;;;;;4992330;28;20175;-68
2021/06/23 10:06:27;;;;;;;5.38;3.65;;;28.50;45.10;;;;;;5014412;28;20050;-68
2021/06/23 10:09:31;;;;;;;9.80;4.25;;;28.70;44.10;;;;;;5009733;28;20082;-67
2021/06/23 10:12:02;;;;;;;7.18;3.63;;;28.90;43.20;;;;;;4994444;28;20038;-67
2021/06/23 10:14:30;;;;;;;8.30;4.22;;;29.00;43.70;;;;;;5014310;28;20041;-67
2021/06/23 10:17:02;;;;;;;5.22;3.75;;;29.00;43.30;;;;;;5025001;28;20041;-67
2021/06/23 10:19:29;;;;;;;5.32;4.20;;;29.10;42.90;;;;;;5019189;28;20045;-68
2021/06/23 10:22:05;;;;;;;9.45;3.88;;;29.20;42.50;;;;;;5020918;28;20495;-67
2021/06/23 10:24:31;;;;;;;9.32;3.70;;;29.30;42.50;;;;;;5016323;28;21726;-67
2021/06/23 10:26:58;;;;;;;6.90;3.50;;;29.50;42.40;;;;;;5016273;28;20041;-67
2021/06/23 10:29:29;;;;;;;7.97;3.70;;;29.60;42.10;;;;;;5015784;28;20041;-68
2021/06/23 10:31:55;;;;;;;6.47;3.80;;;29.70;41.00;;;;;;5020223;28;20045;-67
2021/06/23 10:34:22;;;;;;;5.60;3.30;;;29.80;41.40;;;;;;5019165;28;20056;-67
2021/06/23 10:36:49;;;;;;;4.30;3.17;;;29.90;41.60;;;;;;5023527;28;20034;-67
2021/06/23 10:39:16;;;;;;;8.55;4.25;;;29.90;40.90;;;;;;5030396;28;20041;-68
2021/06/23 10:41:44;;;;;;;3.55;3.13;;;29.60;40.80;;;;;;5017182;28;20042;-67
2021/06/23 10:44:17;;;;;;;4.85;2.85;;;29.70;39.70;;;;;;5014781;28;20113;-67
2021/06/23 10:46:44;;;;;;;6.22;3.13;;;29.90;38.20;;;;;;5015786;28;20156;-68
2021/06/23 10:49:11;;;;;;;5.22;3.03;;;29.90;39.10;;;;;;5036135;28;20041;-67
2021/06/23 10:51:36;;;;;;;5.70;3.30;;;30.20;38.50;;;;;;5018970;28;20042;-67
2021/06/23 10:54:31;;;;;;;4.72;3.20;;;30.40;37.20;;;;;;5020979;28;20034;-67
2021/06/23 10:56:56;;;;;;;6.03;3.15;;;31.20;36.00;;;;;;5001437;28;20045;-67
2021/06/23 10:59:36;;;;;;;6.97;3.70;;;32.00;35.30;;;;;;5010548;28;20042;-68
2021/06/23 11:02:10;;;;;;;4.97;3.63;;;33.00;31.70;;;;;;5005063;28;20042;-68
2021/06/23 11:04:57;;;;;;;7.65;3.05;;;34.40;30.70;;;;;;5013185;28;20037;-69
2021/06/23 11:07:44;;;;;;;5.55;3.45;;;35.60;29.70;;;;;;5015790;28;20041;-68
2021/06/23 11:10:16;;;;;;;4.18;3.10;;;36.80;28.40;;;;;;5014618;28;21100;-68
2021/06/23 11:13:00;;;;;;;4.63;2.72;;;37.40;29.10;;;;;;5019510;28;20029;-69
2021/06/23 11:15:32;;;;;;;5.25;2.38;;;37.30;27.00;;;;;;4976513;28;20061;-68
2021/06/23 11:18:22;;;;;;;4.40;2.85;;;36.40;26.50;;;;;;5025725;28;20564;-68
2021/06/23 11:20:53;;;;;;;6.05;2.97;;;36.10;27.20;;;;;;5021035;28;20045;-69
2021/06/23 11:23:39;;;;;;;5.25;2.50;;;35.50;27.60;;;;;;5037448;28;20447;-67
2021/06/23 11:26:06;;;;;;;7.32;2.90;;;34.30;28.30;;;;;;5013679;28;20491;-69
2021/06/23 11:28:32;;;;;;;6.03;3.17;;;34.00;29.40;;;;;;5020525;28;20046;-68
2021/06/23 11:31:03;;;;;;;3.92;3.08;;;34.30;29.60;;;;;;5035039;28;20041;-72
2021/06/23 11:33:29;;;;;;;4.28;3.08;;;33.70;29.80;;;;;;5022501;28;20037;-75
2021/06/23 11:36:03;;;;;;;4.60;2.80;;;33.10;31.00;;;;;;5023404;28;20064;-74
2021/06/23 11:38:29;;;;;;;;;;;33.10;30.90;;;;;;5038193;28;20562;-68
2021/06/23 11:40:56;;;;;;;6.65;3.20;;;32.50;30.00;;;;;;5014659;28;19947;-65
2021/06/23 11:43:22;;;;;;;3.30;3.00;;;32.80;30.30;;;;;;5011067;28;20064;-60
2021/06/23 11:45:49;;;;;;;4.88;2.63;;;33.00;29.40;;;;;;5016418;28;20061;-63
2021/06/23 11:48:16;;;;;;;5.80;2.88;;;32.60;30.20;;;;;;5011922;28;20077;-66
2021/06/23 11:50:45;;;;;;;4.38;2.80;;;32.80;29.50;;;;;;5008746;28;20045;-63
2021/06/23 11:53:14;;;;;;;6.65;3.50;;;33.30;29.30;;;;;;5012820;28;20132;-64
2021/06/23 11:55:41;;;;;;;6.38;3.42;;;33.80;28.60;;;;;;5023424;28;20120;-66
2021/06/23 11:58:06;;;;;;;4.43;2.95;;;34.00;28.10;;;;;;5017133;28;20041;-69
2021/06/23 12:00:34;;;;;;;4.32;2.42;;;34.40;27.70;;;;;;5020831;28;20384;-67
2021/06/23 12:03:00;;;;;;;4.03;2.42;;;34.60;26.50;;;;;;5006588;28;20076;-68
2021/06/23 12:05:27;;;;;;;5.82;2.97;;;34.70;25.50;;;;;;5016138;28;20132;-66
2021/06/23 12:07:53;;;;;;;5.07;2.90;;;35.80;25.30;;;;;;5002454;28;20077;-67
2021/06/23 12:10:21;;;;;;;6.88;2.95;;;36.20;24.90;;;;;;5012009;28;20045;-55
2021/06/23 12:12:47;;;;;;;6.35;3.45;;;36.30;25.30;;;;;;5015639;28;20061;-63
2021/06/23 12:15:16;;;;;;;6.10;2.90;;;37.60;25.00;;;;;;5005511;28;20038;-63
2021/06/23 12:17:42;;;;;;;3.45;2.80;;;37.70;24.20;;;;;;5007732;28;20068;-64
2021/06/23 12:20:10;;;;;;;5.05;3.58;;;36.70;24.70;;;;;;5033366;28;20507;-63
2021/06/23 12:22:38;;;;;;;3.55;3.05;;;36.50;25.20;;;;;;5015478;28;20034;-64
2021/06/23 12:25:06;;;;;;;4.07;2.88;;;36.60;24.80;;;;;;5021067;28;20073;-63
2021/06/23 12:27:32;;;;;;;3.92;3.08;;;37.20;24.90;;;;;;5013755;28;20092;-64
2021/06/23 12:29:58;;;;;;;4.88;2.53;;;37.50;24.80;;;;;;5009250;28;20061;-64
2021/06/23 12:32:23;;;;;;;7.32;3.47;;;37.20;24.60;;;;;;5022837;28;20073;-62
2021/06/23 12:34:49;;;;;;;6.03;3.50;;;37.60;24.20;;;;;;5003377;28;20045;-60
2021/06/23 12:37:15;;;;;;;5.63;2.90;;;37.50;24.40;;;;;;5011363;28;20128;-64
2021/06/23 12:39:41;;;;;;;5.03;3.30;;;37.50;23.60;;;;;;5012178;28;20128;-64
2021/06/23 12:42:07;;;;;;;5.57;2.60;;;38.40;23.40;;;;;;5021047;28;20038;-64
2021/06/23 12:44:33;;;;;;;4.43;3.10;;;38.30;23.20;;;;;;5003259;28;20141;-63
2021/06/23 12:46:58;;;;;;;5.60;2.95;;;37.40;23.40;;;;;;5009058;28;20116;-63
2021/06/23 12:49:24;;;;;;;3.28;2.70;;;39.00;22.80;;;;;;5018561;28;20034;-63
2021/06/23 12:51:51;;;;;;;6.10;3.40;;;39.00;22.00;;;;;;5012071;28;20144;-63
2021/06/23 12:54:17;;;;;;;5.10;3.00;;;38.10;22.90;;;;;;5020460;28;20057;-63
2021/06/23 12:56:42;;;;;;;4.82;3.15;;;38.60;23.50;;;;;;5019733;28;20041;-64
2021/06/23 12:59:08;;;;;;;7.60;4.07;;;38.90;22.90;;;;;;5018830;28;23095;-64
2021/06/23 13:01:34;;;;;;;6.00;3.10;;;38.30;22.90;;;;;;5022870;28;20041;-63
2021/06/23 13:04:00;;;;;;;3.97;3.15;;;38.20;22.90;;;;;;5007289;28;20062;-64
2021/06/23 13:06:26;;;;;;;5.60;3.08;;;38.20;22.90;;;;;;5018494;28;20048;-63
2021/06/23 13:08:51;;;;;;;4.03;2.90;;;39.10;22.30;;;;;;5005517;28;20042;-63
2021/06/23 13:11:17;;;;;;;6.75;3.25;;;38.10;22.70;;;;;;5016018;28;20514;-64